AirNav   Pilot Hours Calculator
 
 1450 users online  

64FL District VI Heliport
Miami, Florida, USA

GOING TO MIAMI?


FAA INFORMATION EFFECTIVE 15 JULY 2021

Location

FAA Identifier: 64FL
Lat/Long: 25-46-55.1300N 080-22-39.0800W
25-46.918833N 080-22.651333W
25.7819806,-80.3775222
(estimated)
Elevation: 8 ft. / 2 m (estimated)
From city: 9 miles NE of MIAMI, FL
Time zone: UTC -4 (UTC -5 during Standard Time)
Zip code: 33172

Heliport Operations

Heliport use: Private use. Permission required prior to landing
Activation date: 07/2004
Control tower: no
ARTCC: MIAMI CENTER
FSS: MIAMI FLIGHT SERVICE STATION
Attendance: UNATNDD
Wind indicator: yes
Segmented circle: no

Heliport Communications

WX ASOS at MIA (5 nm E): 119.15 (305-870-0235)
WX ASOS at TMB (9 nm S): 124.0 (305-235-1332)
WX ASOS at OPF (9 nm NE): 125.9 (305-681-4063)
WX ASOS at HWO (15 nm NE): PHONE 954-983-5904
WX AWOS-3 at X51 (19 nm SW): 118.375 (305-247-2791)

Nearby radio navigation aids

VOR radial/distance  VOR name  Freq  Var
DHPr239/1.9DOLPHIN VORTAC113.9004W
VKZr283/12.2VIRGINIA KEY VOR/DME117.1004W
FLLr219/20.9FORT LAUDERDALE VOR/DME114.4006W

Heliport Services

Runway Information

Helipad H1

Dimensions: 20 x 20 ft. / 6 x 6 m
Surface: concrete
Latitude: 25-46.918833N
Longitude: 080-22.651333W
Elevation: 8.0 ft.
Traffic pattern: leftleft

Heliport Ownership and Management from official FAA records

Ownership: Privately-owned
Owner: FLORIDA DOT
1000 NW 111 AVENUE
MIAMI, FL 33172-5800
Phone 305-470-5455
Manager: CINDY CAPDEVILA
1000 NW 111 AVENUE
MIAMI, FL 33172-5800
Phone 305-470-5108

Additional Remarks

FOR CD CTC MIAMI APCH AT 305-869-5432.

Instrument Procedures

There are no published instrument procedures at 64FL.

Some nearby airports with instrument procedures:

KMIA - Miami International Airport (5 nm E)
KTMB - Miami Executive Airport (9 nm S)
KOPF - Miami-Opa Locka Executive Airport (9 nm NE)
KHWO - North Perry Airport (15 nm NE)
KHST - Homestead Air Reserve Base (18 nm S)
X51 - Miami Homestead General Aviation Airport (19 nm SW)
 
Loc | Ops | Rwys | IFR | FBO | Links
Com | Nav | Svcs | Stats | Notes


 
Area around 64FL (District VI Heliport)
 
Road maps at: MapQuest Bing Google
 
Aerial photo
No photo
 
Sectional chart

 
Airport distance calculator
Flying to District VI Heliport? Find the distance to fly.

From to 64FL

Sunrise and sunset
Times for 26-Jul-2021
 Local
(UTC-4)
 Zulu
(UTC)
Morning civil twilight06:2110:21
Sunrise06:4610:46
Sunset20:1000:10
Evening civil twilight20:3500:35

Current date and time
Zulu (UTC)  26-Jul-2021 21:10:28
Local (UTC-4)  26-Jul-2021 17:10:28
 
METAR
KMIA 
3nm E 
262053Z 14012G17KT 10SM SCT033 SCT150 BKN250 31/24 A2994 RMK AO2 SLP140 CB DSNT SW-NW T03110239 56006
KTMB 
8nm S 
262053Z 19007KT 10SM BKN038 BKN047 BKN060 32/23 A2994 RMK AO2 LTG DSNT NW SLP137 60000 T03170233 57006
KOPF 
10nm NE 
262053Z 14010KT 10SM FEW035 SCT042 31/23 A2994 RMK AO2 SLP141 T03110228 56006
KHWO 
15nm NE 
262053Z 15011KT 10SM FEW031 SCT042 31/24 A2995 RMK AO2 SLP142 T03110239 56005
KHST 
19nm S 
262056Z AUTO 10007KT 10SM SCT033 32/25 A2994 RMK AO2 SLP142 T03170245 57007
TAF
KMIA 
3nm E 
261726Z 2618/2724 14008KT P6SM VCTS SCT030CB SCT060 TEMPO 2619/2621 VRB10G23KT 3SM TSRA BKN025CB FM262300 16006KT P6SM VCSH FEW025 SCT050 FM270200 VRB04KT P6SM SCT030 BKN070 FM271400 15008KT P6SM VCSH SCT030 SCT060
KTMB 
8nm S 
261726Z 2618/2718 13008KT P6SM VCTS SCT030CB BKN060 FM262300 16006KT P6SM VCSH FEW025 SCT050 FM270200 VRB04KT P6SM SCT030 BKN070
KOPF 
10nm NE 
261726Z 2618/2718 14010KT P6SM VCTS SCT030CB BKN080 FM262300 16006KT P6SM VCSH FEW025 SCT050 FM270100 VRB04KT P6SM SCT030 BKN070
KHST 
19nm S 
262028Z 2620/2801 14008KT 9999 VCTS BKN025 BKN040 BKN080 QNH2993INS BECMG 2623/2624 12003KT 9999 NSW FEW025 SCT040 QNH2995INS BECMG 2714/2715 15008KT 9999 FEW035 SCT090 QNH2999INS TEMPO 2718/2723 15012G18KT 3200 TSRA BR FEW015 BKN020 OVC030CB BECMG 2723/2724 17003KT 9999 FEW025 SCT040 SCT090 QNH3000INS TX31/2719Z TN25/2710Z
NOTAMs
Click for the latest NOTAMs
NOTAMs are issued by the DoD/FAA and will open in a separate window not controlled by AirNav.

 

 
 

Would you like to see your business listed on this page?

 If your business provides an interesting product or service to pilots, flight crews, aircraft, or users of the District VI Heliport, you should consider listing it here.  To start the listing process, click on the button below
 
Add a business
 

Other Pages about District VI Heliport

Update a link
 
Copyright © AirNav, LLC. All rights reserved. Privacy Policy  Contact